Baltica — 9HA2607 — position and weather

sailwx.info

Track history (hours):
 
Tides and Currents Weather Stations Pressure Air Temp Water Temp Dewpoint Dewpoint Depression Visibility Wind Speed Wind Dir Waves Ship Positions

Baltica

Last reported at 2015-Feb-01 13:03 UTC. Time now 2015-Feb-01 14:53 UTC.
Position N 53°56' E 010°52'.

Length 157 m; draft 7.2 m.

Type: Cargo ship. MMSI: 215013000.

Date/timePositionNaut miles runAvg speedWind from/ knotsBaromVisibWave heightAir tempDewpointWater temp
2015-Feb-01 13:03N 53°56' E 010°52'18 0.7
2015-Jan-31 11:31N 54°09' E 011°14'1616.7
2015-Jan-31 10:33N 54°17' E 011°36'1616.4
2015-Jan-31 09:33N 54°26' E 012°01'1514.5
2015-Jan-31 08:33N 54°36' E 012°18'1916.7
2015-Jan-31 07:25N 54°47' E 012°44'1717.2
2015-Jan-31 06:25N 54°53' E 013°13'3917.1
2015-Jan-31 04:09N 55°10' E 014°14'1118.1
2015-Jan-31 03:33N 55°18' E 014°26'1817.7
2015-Jan-31 02:33N 55°30' E 014°50'1918.0
2015-Jan-31 01:30N 55°39' E 015°18'11216.1
2015-Jan-30 18:33N 57°06' E 017°26'1616.1
2015-Jan-30 17:33N 57°21' E 017°36'21916.4
2015-Jan-30 04:12N 59°35' E 023°06'1117.0
2015-Jan-30 03:33N 59°38' E 023°27'3517.3
2015-Jan-30 01:33N 59°47' E 024°33'5217.1
2015-Jan-29 22:31N 60°05' E 026°11'1414.8
2015-Jan-29 21:34N 60°16' E 026°29'1616.0
2015-Jan-29 20:34N 60°25' E 026°55'4 3.8
2015-Jan-29 19:32N 60°29' E 026°57'0 0.0
2015-Jan-29 18:32N 60°29' E 026°57'0 0.0
2015-Jan-29 17:32N 60°29' E 026°57'0 0.0
2015-Jan-29 16:32N 60°29' E 026°57'0 0.0
2015-Jan-29 15:32N 60°29' E 026°57'0 0.0
2015-Jan-29 14:32N 60°29' E 026°57'0 0.0
2015-Jan-29 13:32N 60°29' E 026°57'0 0.0
2015-Jan-29 12:31N 60°29' E 026°57'0 0.0
2015-Jan-29 11:29N 60°29' E 026°57'0 0.0
2015-Jan-29 10:31N 60°29' E 026°57'0 0.0
2015-Jan-29 09:32N 60°29' E 026°57'0 0.0
2015-Jan-29 08:32N 60°29' E 026°57'0 0.0
2015-Jan-29 07:32N 60°29' E 026°57'0 0.0
2015-Jan-29 06:33N 60°29' E 026°57'7 6.9
2015-Jan-29 05:34N 60°22' E 027°00'1111.5
2015-Jan-29 04:33N 60°15' E 027°17'8614.0
2015-Jan-28 22:26N 59°54' E 030°04'4 0.7
2015-Jan-28 16:16N 59°53' E 030°13'2 3.2
2015-Jan-28 15:33N 59°54' E 030°08'100 7.1
2015-Jan-28 01:34N 59°59' E 026°50'6018.5
2015-Jan-27 22:20N 59°47' E 024°53'1418.7
2015-Jan-27 21:33N 59°44' E 024°25'1918.5
2015-Jan-27 20:32N 59°38' E 023°49'36417.9
2015-Jan-27 00:16N 55°37' E 015°21'1318.1
2015-Jan-26 23:34N 55°30' E 015°02'1818.3
2015-Jan-26 22:33N 55°19' E 014°36'1918.4
2015-Jan-26 21:33N 55°05' E 014°15'2117.8
2015-Jan-26 20:22N 54°56' E 013°42'1518.1
2015-Jan-26 19:33N 54°52' E 013°17'1818.1
2015-Jan-26 18:33N 54°46' E 012°47'1817.3
2015-Jan-26 17:32N 54°36' E 012°22'1717.0
2015-Jan-26 16:33N 54°22' E 012°06'1717.4
2015-Jan-26 15:34N 54°14' E 011°40'1818.0
2015-Jan-26 14:33N 54°06' E 011°13'2 0.1
2015-Jan-25 12:33N 54°08' E 011°12'1716.7
2015-Jan-25 11:33N 54°17' E 011°36'1716.5
2015-Jan-25 10:33N 54°26' E 012°00'1414.3
2015-Jan-25 09:33N 54°36' E 012°17'1916.0
2015-Jan-25 08:24N 54°48' E 012°42'1316.1
2015-Jan-25 07:33N 54°52' E 013°05'2217.1
2015-Jan-25 06:16N 54°59' E 013°41'1416.6
2015-Jan-25 05:26N 55°05' E 014°03'1516.4
2015-Jan-25 04:33N 55°15' E 014°21'1717.1
2015-Jan-25 03:33N 55°27' E 014°42'36715.9
2015-Jan-24 04:33N 59°35' E 023°06'1717.0
2015-Jan-24 03:33N 59°40' E 023°38'2217.2
2015-Jan-24 02:18N 59°46' E 024°19'1317.1
2015-Jan-24 01:33N 59°49' E 024°43'5116.4
2015-Jan-23 22:26N 60°08' E 026°18'1112.8
2015-Jan-23 21:33N 60°17' E 026°31'1514.7
2015-Jan-23 20:34N 60°25' E 026°56'4 3.6
2015-Jan-23 19:32N 60°29' E 026°57'0 0.0
2015-Jan-23 18:32N 60°29' E 026°57'0 0.0
2015-Jan-23 17:32N 60°29' E 026°57'0 0.0
2015-Jan-23 16:32N 60°29' E 026°57'0 0.0
2015-Jan-23 15:32N 60°29' E 026°57'0 0.0
2015-Jan-23 14:32N 60°29' E 026°57'0 0.0
2015-Jan-23 13:32N 60°29' E 026°57'0 0.0
2015-Jan-23 12:32N 60°29' E 026°57'0 0.0
2015-Jan-23 11:32N 60°29' E 026°57'0 0.0
2015-Jan-23 10:32N 60°29' E 026°57'0 0.0
2015-Jan-23 09:32N 60°29' E 026°57'0 0.0
2015-Jan-23 08:32N 60°29' E 026°57'0 0.0
2015-Jan-23 07:32N 60°29' E 026°57'0 0.0
2015-Jan-23 06:32N 60°29' E 026°57'0 0.0
2015-Jan-23 05:26N 60°29' E 026°57'0 0.0
2015-Jan-23 04:33N 60°29' E 026°57'2 2.4
2015-Jan-23 03:33N 60°27' E 026°58'9 8.7
2015-Jan-23 02:33N 60°20' E 027°08'1211.8
2015-Jan-23 01:32N 60°12' E 027°27'8311.8
2015-Jan-22 18:32N 59°54' E 030°09'  
Track history (hours):
 
Tides and Currents Weather Stations Pressure Air Temp Water Temp Dewpoint Dewpoint Depression Visibility Wind Speed Wind Dir Waves Ship Positions

Baltica

Last reported at 2015-Feb-01 13:03 UTC. Time now 2015-Feb-01 14:53 UTC.
Position N 53°56' E 010°52'.

Length 157 m; draft 7.2 m.

Type: Cargo ship. MMSI: 215013000.

Date/timePositionNaut miles runAvg speedWind from/ knotsBaromVisibWave heightAir tempDewpointWater temp
2015-Feb-01 13:03N 53°56' E 010°52'18 0.7
2015-Jan-31 11:31N 54°09' E 011°14'1616.7
2015-Jan-31 10:33N 54°17' E 011°36'1616.4
2015-Jan-31 09:33N 54°26' E 012°01'1514.5
2015-Jan-31 08:33N 54°36' E 012°18'1916.7
2015-Jan-31 07:25N 54°47' E 012°44'1717.2
2015-Jan-31 06:25N 54°53' E 013°13'3917.1
2015-Jan-31 04:09N 55°10' E 014°14'1118.1
2015-Jan-31 03:33N 55°18' E 014°26'1817.7
2015-Jan-31 02:33N 55°30' E 014°50'1918.0
2015-Jan-31 01:30N 55°39' E 015°18'11216.1
2015-Jan-30 18:33N 57°06' E 017°26'1616.1
2015-Jan-30 17:33N 57°21' E 017°36'21916.4
2015-Jan-30 04:12N 59°35' E 023°06'1117.0
2015-Jan-30 03:33N 59°38' E 023°27'3517.3
2015-Jan-30 01:33N 59°47' E 024°33'5217.1
2015-Jan-29 22:31N 60°05' E 026°11'1414.8
2015-Jan-29 21:34N 60°16' E 026°29'1616.0
2015-Jan-29 20:34N 60°25' E 026°55'4 3.8
2015-Jan-29 19:32N 60°29' E 026°57'0 0.0
2015-Jan-29 18:32N 60°29' E 026°57'0 0.0
2015-Jan-29 17:32N 60°29' E 026°57'0 0.0
2015-Jan-29 16:32N 60°29' E 026°57'0 0.0
2015-Jan-29 15:32N 60°29' E 026°57'0 0.0
2015-Jan-29 14:32N 60°29' E 026°57'0 0.0
2015-Jan-29 13:32N 60°29' E 026°57'0 0.0
2015-Jan-29 12:31N 60°29' E 026°57'0 0.0
2015-Jan-29 11:29N 60°29' E 026°57'0 0.0
2015-Jan-29 10:31N 60°29' E 026°57'0 0.0
2015-Jan-29 09:32N 60°29' E 026°57'0 0.0
2015-Jan-29 08:32N 60°29' E 026°57'0 0.0
2015-Jan-29 07:32N 60°29' E 026°57'0 0.0
2015-Jan-29 06:33N 60°29' E 026°57'7 6.9
2015-Jan-29 05:34N 60°22' E 027°00'1111.5
2015-Jan-29 04:33N 60°15' E 027°17'8614.0
2015-Jan-28 22:26N 59°54' E 030°04'4 0.7
2015-Jan-28 16:16N 59°53' E 030°13'2 3.2
2015-Jan-28 15:33N 59°54' E 030°08'100 7.1
2015-Jan-28 01:34N 59°59' E 026°50'6018.5
2015-Jan-27 22:20N 59°47' E 024°53'1418.7
2015-Jan-27 21:33N 59°44' E 024°25'1918.5
2015-Jan-27 20:32N 59°38' E 023°49'36417.9
2015-Jan-27 00:16N 55°37' E 015°21'1318.1
2015-Jan-26 23:34N 55°30' E 015°02'1818.3
2015-Jan-26 22:33N 55°19' E 014°36'1918.4
2015-Jan-26 21:33N 55°05' E 014°15'2117.8
2015-Jan-26 20:22N 54°56' E 013°42'1518.1
2015-Jan-26 19:33N 54°52' E 013°17'1818.1
2015-Jan-26 18:33N 54°46' E 012°47'1817.3
2015-Jan-26 17:32N 54°36' E 012°22'1717.0
2015-Jan-26 16:33N 54°22' E 012°06'1717.4
2015-Jan-26 15:34N 54°14' E 011°40'1818.0
2015-Jan-26 14:33N 54°06' E 011°13'2 0.1
2015-Jan-25 12:33N 54°08' E 011°12'1716.7
2015-Jan-25 11:33N 54°17' E 011°36'1716.5
2015-Jan-25 10:33N 54°26' E 012°00'1414.3
2015-Jan-25 09:33N 54°36' E 012°17'1916.0
2015-Jan-25 08:24N 54°48' E 012°42'1316.1
2015-Jan-25 07:33N 54°52' E 013°05'2217.1
2015-Jan-25 06:16N 54°59' E 013°41'1416.6
2015-Jan-25 05:26N 55°05' E 014°03'1516.4
2015-Jan-25 04:33N 55°15' E 014°21'1717.1
2015-Jan-25 03:33N 55°27' E 014°42'36715.9
2015-Jan-24 04:33N 59°35' E 023°06'1717.0
2015-Jan-24 03:33N 59°40' E 023°38'2217.2
2015-Jan-24 02:18N 59°46' E 024°19'1317.1
2015-Jan-24 01:33N 59°49' E 024°43'5116.4
2015-Jan-23 22:26N 60°08' E 026°18'1112.8
2015-Jan-23 21:33N 60°17' E 026°31'1514.7
2015-Jan-23 20:34N 60°25' E 026°56'4 3.6
2015-Jan-23 19:32N 60°29' E 026°57'0 0.0
2015-Jan-23 18:32N 60°29' E 026°57'0 0.0
2015-Jan-23 17:32N 60°29' E 026°57'0 0.0
2015-Jan-23 16:32N 60°29' E 026°57'0 0.0
2015-Jan-23 15:32N 60°29' E 026°57'0 0.0
2015-Jan-23 14:32N 60°29' E 026°57'0 0.0
2015-Jan-23 13:32N 60°29' E 026°57'0 0.0
2015-Jan-23 12:32N 60°29' E 026°57'0 0.0
2015-Jan-23 11:32N 60°29' E 026°57'0 0.0
2015-Jan-23 10:32N 60°29' E 026°57'0 0.0
2015-Jan-23 09:32N 60°29' E 026°57'0 0.0
2015-Jan-23 08:32N 60°29' E 026°57'0 0.0
2015-Jan-23 07:32N 60°29' E 026°57'0 0.0
2015-Jan-23 06:32N 60°29' E 026°57'0 0.0
2015-Jan-23 05:26N 60°29' E 026°57'0 0.0
2015-Jan-23 04:33N 60°29' E 026°57'2 2.4
2015-Jan-23 03:33N 60°27' E 026°58'9 8.7
2015-Jan-23 02:33N 60°20' E 027°08'1211.8
2015-Jan-23 01:32N 60°12' E 027°27'8311.8
2015-Jan-22 18:32N 59°54' E 030°09'  

Dump ship's entire track history